sensor_id;sensor_type;location;lat;lon;timestamp;pressure;altitude;pressure_sealevel;temperature;humidity
65151;BME280;51918;51.856;0.150;2022-07-10T00:01:12;102006.84;;;16.85;56.06
65151;BME280;51918;51.856;0.150;2022-07-10T00:06:13;101999.72;;;16.78;56.78
65151;BME280;51918;51.856;0.150;2022-07-10T00:11:13;102002.28;;;16.70;56.74
65151;BME280;51918;51.856;0.150;2022-07-10T00:16:15;101992.59;;;16.31;56.21
65151;BME280;51918;51.856;0.150;2022-07-10T00:21:16;101986.25;;;16.50;57.63
65151;BME280;51918;51.856;0.150;2022-07-10T00:26:16;101990.16;;;16.46;57.27
65151;BME280;51918;51.856;0.150;2022-07-10T00:31:18;101986.41;;;16.49;57.03
65151;BME280;51918;51.856;0.150;2022-07-10T00:36:19;101981.56;;;16.37;57.80
65151;BME280;51918;51.856;0.150;2022-07-10T00:41:19;101978.31;;;16.11;59.06
65151;BME280;51918;51.856;0.150;2022-07-10T00:46:21;101989.19;;;16.14;59.50
65151;BME280;51918;51.856;0.150;2022-07-10T00:51:24;101974.75;;;16.12;59.35
65151;BME280;51918;51.856;0.150;2022-07-10T00:56:26;101982.72;;;16.18;58.82
65151;BME280;51918;51.856;0.150;2022-07-10T01:01:29;101978.00;;;16.06;59.28
65151;BME280;51918;51.856;0.150;2022-07-10T01:06:29;101973.78;;;15.96;59.60
65151;BME280;51918;51.856;0.150;2022-07-10T01:11:31;101972.47;;;15.84;59.41
65151;BME280;51918;51.856;0.150;2022-07-10T01:16:35;101971.81;;;15.82;59.61
65151;BME280;51918;51.856;0.150;2022-07-10T01:21:37;101968.53;;;15.80;59.57
65151;BME280;51918;51.856;0.150;2022-07-10T01:26:38;101972.25;;;15.69;59.90
65151;BME280;51918;51.856;0.150;2022-07-10T01:31:38;101966.03;;;15.46;59.54
65151;BME280;51918;51.856;0.150;2022-07-10T01:36:41;101964.00;;;15.74;59.80
65151;BME280;51918;51.856;0.150;2022-07-10T01:41:41;101960.06;;;15.61;60.32
65151;BME280;51918;51.856;0.150;2022-07-10T01:46:45;101952.75;;;15.57;60.19
65151;BME280;51918;51.856;0.150;2022-07-10T01:51:47;101949.53;;;15.55;60.82
65151;BME280;51918;51.856;0.150;2022-07-10T01:56:47;101962.84;;;15.60;60.22
65151;BME280;51918;51.856;0.150;2022-07-10T02:01:48;101947.69;;;15.31;59.71
65151;BME280;51918;51.856;0.150;2022-07-10T02:06:50;101951.78;;;15.50;60.92
65151;BME280;51918;51.856;0.150;2022-07-10T02:11:50;101943.19;;;15.49;60.56
65151;BME280;51918;51.856;0.150;2022-07-10T02:16:51;101950.16;;;15.40;60.20
65151;BME280;51918;51.856;0.150;2022-07-10T02:21:53;101952.75;;;15.40;60.67
65151;BME280;51918;51.856;0.150;2022-07-10T02:26:53;101939.94;;;15.39;61.01
65151;BME280;51918;51.856;0.150;2022-07-10T02:31:54;101946.72;;;15.40;61.05
65151;BME280;51918;51.856;0.150;2022-07-10T02:36:56;101938.94;;;15.40;60.38
65151;BME280;51918;51.856;0.150;2022-07-10T02:41:56;101933.09;;;15.30;60.86
65151;BME280;51918;51.856;0.150;2022-07-10T02:46:57;101933.41;;;15.27;61.06
65151;BME280;51918;51.856;0.150;2022-07-10T02:51:59;101931.75;;;15.17;61.26
65151;BME280;51918;51.856;0.150;2022-07-10T02:56:59;101933.84;;;15.14;61.35
65151;BME280;51918;51.856;0.150;2022-07-10T03:02:00;101937.28;;;15.14;61.65
65151;BME280;51918;51.856;0.150;2022-07-10T03:07:02;101935.63;;;15.13;61.48
65151;BME280;51918;51.856;0.150;2022-07-10T03:12:03;101924.91;;;15.00;61.34
65151;BME280;51918;51.856;0.150;2022-07-10T03:17:04;101919.88;;;14.98;61.58
65151;BME280;51918;51.856;0.150;2022-07-10T03:22:06;101914.53;;;15.00;61.64
65151;BME280;51918;51.856;0.150;2022-07-10T03:27:06;101915.97;;;14.94;61.42
65151;BME280;51918;51.856;0.150;2022-07-10T03:32:08;101915.31;;;14.92;62.05
65151;BME280;51918;51.856;0.150;2022-07-10T03:37:10;101909.72;;;14.79;61.75
65151;BME280;51918;51.856;0.150;2022-07-10T03:42:11;101910.03;;;14.76;62.27
65151;BME280;51918;51.856;0.150;2022-07-10T03:47:11;101899.50;;;14.69;62.62
65151;BME280;51918;51.856;0.150;2022-07-10T03:52:13;101896.56;;;14.72;62.21
65151;BME280;51918;51.856;0.150;2022-07-10T03:57:14;101898.34;;;14.72;62.10
65151;BME280;51918;51.856;0.150;2022-07-10T04:02:14;101894.50;;;14.76;62.53
65151;BME280;51918;51.856;0.150;2022-07-10T04:07:16;101898.69;;;14.77;61.91
65151;BME280;51918;51.856;0.150;2022-07-10T04:12:17;101901.13;;;14.78;62.01
65151;BME280;51918;51.856;0.150;2022-07-10T04:17:17;101899.69;;;14.76;62.20
65151;BME280;51918;51.856;0.150;2022-07-10T04:22:19;101894.97;;;14.71;62.06
65151;BME280;51918;51.856;0.150;2022-07-10T04:27:20;101903.81;;;14.69;62.11
65151;BME280;51918;51.856;0.150;2022-07-10T04:32:21;101893.47;;;14.69;62.00
65151;BME280;51918;51.856;0.150;2022-07-10T04:37:23;101884.59;;;14.71;61.97
65151;BME280;51918;51.856;0.150;2022-07-10T04:42:23;101892.72;;;14.76;61.92
65151;BME280;51918;51.856;0.150;2022-07-10T04:47:24;101899.81;;;14.74;62.69
65151;BME280;51918;51.856;0.150;2022-07-10T04:52:26;101896.66;;;14.81;62.46
65151;BME280;51918;51.856;0.150;2022-07-10T04:57:26;101895.38;;;14.85;62.34
65151;BME280;51918;51.856;0.150;2022-07-10T05:02:27;101889.41;;;14.92;62.25
65151;BME280;51918;51.856;0.150;2022-07-10T05:07:29;101885.38;;;14.98;61.29
65151;BME280;51918;51.856;0.150;2022-07-10T05:12:29;101889.28;;;15.02;61.52
65151;BME280;51918;51.856;0.150;2022-07-10T05:17:30;101890.13;;;15.11;61.72
65151;BME280;51918;51.856;0.150;2022-07-10T05:22:32;101892.41;;;15.22;61.68
65151;BME280;51918;51.856;0.150;2022-07-10T05:27:32;101889.84;;;15.30;61.85
65151;BME280;51918;51.856;0.150;2022-07-10T05:32:33;101893.59;;;15.36;62.27
65151;BME280;51918;51.856;0.150;2022-07-10T05:37:35;101902.66;;;15.48;62.54
65151;BME280;51918;51.856;0.150;2022-07-10T05:42:35;101892.97;;;15.58;62.51
65151;BME280;51918;51.856;0.150;2022-07-10T05:47:36;101902.06;;;15.71;62.47
65151;BME280;51918;51.856;0.150;2022-07-10T05:52:39;101887.81;;;15.91;62.61
65151;BME280;51918;51.856;0.150;2022-07-10T05:57:39;101881.47;;;16.10;62.02
65151;BME280;51918;51.856;0.150;2022-07-10T06:02:40;101886.28;;;16.38;61.49
65151;BME280;51918;51.856;0.150;2022-07-10T06:07:42;101885.38;;;16.78;60.14
65151;BME280;51918;51.856;0.150;2022-07-10T06:12:42;101884.25;;;17.35;58.86
65151;BME280;51918;51.856;0.150;2022-07-10T06:17:43;101886.81;;;18.04;57.34
65151;BME280;51918;51.856;0.150;2022-07-10T06:22:45;101879.91;;;18.71;57.40
65151;BME280;51918;51.856;0.150;2022-07-10T06:27:45;101885.22;;;19.79;54.27
65151;BME280;51918;51.856;0.150;2022-07-10T06:32:46;101874.91;;;20.62;53.10
65151;BME280;51918;51.856;0.150;2022-07-10T06:37:48;101867.88;;;21.44;50.43
65151;BME280;51918;51.856;0.150;2022-07-10T06:42:48;101878.09;;;22.19;48.30
65151;BME280;51918;51.856;0.150;2022-07-10T06:47:49;101880.00;;;23.02;45.96
65151;BME280;51918;51.856;0.150;2022-07-10T06:52:51;101873.97;;;23.77;45.10
65151;BME280;51918;51.856;0.150;2022-07-10T06:57:52;101885.78;;;24.48;43.00
65151;BME280;51918;51.856;0.150;2022-07-10T07:02:53;101874.03;;;25.11;41.28
65151;BME280;51918;51.856;0.150;2022-07-10T07:07:55;101882.34;;;25.38;39.99
65151;BME280;51918;51.856;0.150;2022-07-10T07:12:55;101874.13;;;25.93;39.66
65151;BME280;51918;51.856;0.150;2022-07-10T07:17:56;101875.88;;;26.69;39.19
65151;BME280;51918;51.856;0.150;2022-07-10T07:22:58;101881.41;;;27.47;37.29
65151;BME280;51918;51.856;0.150;2022-07-10T07:27:58;101878.75;;;28.02;37.18
65151;BME280;51918;51.856;0.150;2022-07-10T07:32:59;101872.72;;;28.51;35.21
65151;BME280;51918;51.856;0.150;2022-07-10T07:38:02;101872.19;;;29.09;35.29
65151;BME280;51918;51.856;0.150;2022-07-10T07:43:03;101861.56;;;29.94;33.47
65151;BME280;51918;51.856;0.150;2022-07-10T07:48:04;101870.03;;;30.74;32.49
65151;BME280;51918;51.856;0.150;2022-07-10T07:53:06;101874.00;;;31.23;31.01
65151;BME280;51918;51.856;0.150;2022-07-10T07:58:06;101875.78;;;31.74;30.45
65151;BME280;51918;51.856;0.150;2022-07-10T08:03:07;101865.50;;;32.17;30.07
65151;BME280;51918;51.856;0.150;2022-07-10T08:08:09;101863.72;;;32.46;29.47
65151;BME280;51918;51.856;0.150;2022-07-10T08:13:09;101860.28;;;33.10;28.71
65151;BME280;51918;51.856;0.150;2022-07-10T08:18:10;101859.75;;;33.61;27.74
65151;BME280;51918;51.856;0.150;2022-07-10T08:23:12;101857.31;;;34.07;27.27
65151;BME280;51918;51.856;0.150;2022-07-10T08:28:13;101852.44;;;34.66;26.99
65151;BME280;51918;51.856;0.150;2022-07-10T08:33:13;101854.75;;;35.20;27.07
65151;BME280;51918;51.856;0.150;2022-07-10T08:38:15;101841.25;;;35.66;25.41
65151;BME280;51918;51.856;0.150;2022-07-10T08:43:16;101847.38;;;36.17;25.05
65151;BME280;51918;51.856;0.150;2022-07-10T08:48:20;101832.97;;;36.27;24.23
65151;BME280;51918;51.856;0.150;2022-07-10T08:53:28;101838.53;;;36.39;24.50
65151;BME280;51918;51.856;0.150;2022-07-10T08:58:29;101826.38;;;37.27;23.11
65151;BME280;51918;51.856;0.150;2022-07-10T09:03:33;101824.25;;;37.81;22.64
65151;BME280;51918;51.856;0.150;2022-07-10T09:08:35;101814.44;;;38.38;22.27
65151;BME280;51918;51.856;0.150;2022-07-10T09:13:48;101817.34;;;39.09;22.93
65151;BME280;51918;51.856;0.150;2022-07-10T09:18:49;101815.91;;;39.12;20.73
65151;BME280;51918;51.856;0.150;2022-07-10T09:23:51;101805.91;;;39.12;20.79
65151;BME280;51918;51.856;0.150;2022-07-10T09:29:05;101807.25;;;39.78;20.14
65151;BME280;51918;51.856;0.150;2022-07-10T09:34:06;101806.13;;;40.46;19.47
65151;BME280;51918;51.856;0.150;2022-07-10T09:39:08;101801.00;;;40.90;18.94
65151;BME280;51918;51.856;0.150;2022-07-10T09:44:08;101789.81;;;41.28;18.57
65151;BME280;51918;51.856;0.150;2022-07-10T09:49:10;101794.22;;;41.61;17.74
65151;BME280;51918;51.856;0.150;2022-07-10T09:54:12;101785.50;;;41.96;18.09
65151;BME280;51918;51.856;0.150;2022-07-10T09:59:14;101781.72;;;42.13;17.23
65151;BME280;51918;51.856;0.150;2022-07-10T10:04:17;101787.47;;;42.59;16.71
65151;BME280;51918;51.856;0.150;2022-07-10T10:09:22;101774.72;;;42.44;17.59
65151;BME280;51918;51.856;0.150;2022-07-10T10:14:24;101766.72;;;42.83;16.27
65151;BME280;51918;51.856;0.150;2022-07-10T10:19:26;101776.09;;;43.40;17.06
65151;BME280;51918;51.856;0.150;2022-07-10T10:24:31;101762.41;;;43.13;16.50
65151;BME280;51918;51.856;0.150;2022-07-10T10:29:32;101755.28;;;43.44;15.84
65151;BME280;51918;51.856;0.150;2022-07-10T10:34:39;101747.41;;;43.78;15.37
65151;BME280;51918;51.856;0.150;2022-07-10T10:39:53;101746.19;;;43.56;14.63
65151;BME280;51918;51.856;0.150;2022-07-10T10:45:22;101741.66;;;43.41;15.52
65151;BME280;51918;51.856;0.150;2022-07-10T10:50:35;101739.09;;;43.67;15.57
65151;BME280;51918;51.856;0.150;2022-07-10T10:55:38;101735.09;;;43.84;14.90
65151;BME280;51918;51.856;0.150;2022-07-10T11:00:38;101729.28;;;44.32;14.56
65151;BME280;51918;51.856;0.150;2022-07-10T11:05:40;101720.81;;;44.64;14.16
65151;BME280;51918;51.856;0.150;2022-07-10T11:10:44;101720.88;;;44.97;13.59
65151;BME280;51918;51.856;0.150;2022-07-10T11:15:46;101712.53;;;44.80;12.67
65151;BME280;51918;51.856;0.150;2022-07-10T11:20:48;101714.97;;;44.88;13.30
65151;BME280;51918;51.856;0.150;2022-07-10T11:25:51;101698.81;;;44.72;12.76
65151;BME280;51918;51.856;0.150;2022-07-10T11:30:53;101703.25;;;45.14;12.92
65151;BME280;51918;51.856;0.150;2022-07-10T11:35:54;101693.47;;;45.10;12.56
65151;BME280;51918;51.856;0.150;2022-07-10T11:40:56;101687.50;;;45.72;12.54
65151;BME280;51918;51.856;0.150;2022-07-10T11:45:57;101681.66;;;46.22;12.74
65151;BME280;51918;51.856;0.150;2022-07-10T11:50:57;101680.56;;;46.30;12.34
65151;BME280;51918;51.856;0.150;2022-07-10T11:55:59;101677.91;;;46.41;12.67
65151;BME280;51918;51.856;0.150;2022-07-10T12:01:01;101676.31;;;45.84;11.57
65151;BME280;51918;51.856;0.150;2022-07-10T12:06:04;101672.75;;;44.94;12.32
65151;BME280;51918;51.856;0.150;2022-07-10T12:11:12;101668.00;;;45.22;12.70
65151;BME280;51918;51.856;0.150;2022-07-10T12:16:13;101665.63;;;45.57;12.55
65151;BME280;51918;51.856;0.150;2022-07-10T12:21:15;101664.97;;;46.27;12.26
65151;BME280;51918;51.856;0.150;2022-07-10T12:26:17;101657.81;;;46.67;12.18
65151;BME280;51918;51.856;0.150;2022-07-10T12:31:22;101658.25;;;46.94;11.73
65151;BME280;51918;51.856;0.150;2022-07-10T12:36:24;101646.16;;;46.73;11.55
65151;BME280;51918;51.856;0.150;2022-07-10T12:41:27;101646.63;;;47.08;11.30
65151;BME280;51918;51.856;0.150;2022-07-10T12:46:27;101643.53;;;47.27;11.92
65151;BME280;51918;51.856;0.150;2022-07-10T12:51:29;101633.81;;;47.51;10.92
65151;BME280;51918;51.856;0.150;2022-07-10T12:56:33;101633.41;;;47.31;11.55
65151;BME280;51918;51.856;0.150;2022-07-10T13:01:42;101623.28;;;47.50;11.58
65151;BME280;51918;51.856;0.150;2022-07-10T13:06:43;101619.03;;;47.38;11.03
65151;BME280;51918;51.856;0.150;2022-07-10T13:11:45;101619.41;;;47.62;11.14
65151;BME280;51918;51.856;0.150;2022-07-10T13:16:46;101610.38;;;46.93;10.55
65151;BME280;51918;51.856;0.150;2022-07-10T13:21:46;101612.69;;;45.92;11.61
65151;BME280;51918;51.856;0.150;2022-07-10T13:26:48;101601.19;;;45.17;11.92
65151;BME280;51918;51.856;0.150;2022-07-10T13:31:49;101598.38;;;45.51;12.12
65151;BME280;51918;51.856;0.150;2022-07-10T13:36:50;101605.94;;;45.75;11.76
65151;BME280;51918;51.856;0.150;2022-07-10T13:41:52;101601.19;;;46.24;11.80
65151;BME280;51918;51.856;0.150;2022-07-10T13:46:52;101591.22;;;46.53;11.07
65151;BME280;51918;51.856;0.150;2022-07-10T13:51:53;101590.44;;;46.56;10.92
65151;BME280;51918;51.856;0.150;2022-07-10T13:56:55;101581.91;;;46.65;11.09
65151;BME280;51918;51.856;0.150;2022-07-10T14:01:55;101578.19;;;46.14;10.40
65151;BME280;51918;51.856;0.150;2022-07-10T14:06:56;101573.34;;;45.79;11.33
65151;BME280;51918;51.856;0.150;2022-07-10T14:11:58;101574.63;;;45.44;10.89
65151;BME280;51918;51.856;0.150;2022-07-10T14:16:58;101573.50;;;45.04;12.19
65151;BME280;51918;51.856;0.150;2022-07-10T14:21:59;101571.09;;;43.74;12.05
65151;BME280;51918;51.856;0.150;2022-07-10T14:27:01;101565.31;;;43.76;13.09
65151;BME280;51918;51.856;0.150;2022-07-10T14:32:01;101563.22;;;43.92;12.35
65151;BME280;51918;51.856;0.150;2022-07-10T14:37:02;101560.09;;;43.64;12.40
65151;BME280;51918;51.856;0.150;2022-07-10T14:42:05;101562.28;;;43.31;12.31
65151;BME280;51918;51.856;0.150;2022-07-10T14:47:05;101556.50;;;42.71;12.30
65151;BME280;51918;51.856;0.150;2022-07-10T14:52:06;101553.94;;;42.04;13.44
65151;BME280;51918;51.856;0.150;2022-07-10T14:57:08;101541.50;;;41.83;13.94
65151;BME280;51918;51.856;0.150;2022-07-10T15:02:09;101539.41;;;41.61;13.88
65151;BME280;51918;51.856;0.150;2022-07-10T15:07:09;101535.50;;;41.42;14.00
65151;BME280;51918;51.856;0.150;2022-07-10T15:12:11;101542.38;;;40.95;13.98
65151;BME280;51918;51.856;0.150;2022-07-10T15:17:13;101542.03;;;40.69;14.10
65151;BME280;51918;51.856;0.150;2022-07-10T15:22:14;101529.09;;;40.34;14.40
65151;BME280;51918;51.856;0.150;2022-07-10T15:27:16;101524.66;;;39.89;14.94
65151;BME280;51918;51.856;0.150;2022-07-10T15:32:16;101520.56;;;39.46;14.89
65151;BME280;51918;51.856;0.150;2022-07-10T15:37:17;101520.25;;;38.81;14.78
65151;BME280;51918;51.856;0.150;2022-07-10T15:42:19;101508.69;;;38.17;15.16
65151;BME280;51918;51.856;0.150;2022-07-10T15:47:19;101500.41;;;37.63;15.81
65151;BME280;51918;51.856;0.150;2022-07-10T15:52:20;101498.00;;;37.05;15.44
65151;BME280;51918;51.856;0.150;2022-07-10T15:57:22;101497.03;;;36.40;15.90
65151;BME280;51918;51.856;0.150;2022-07-10T16:02:22;101493.56;;;35.82;17.06
65151;BME280;51918;51.856;0.150;2022-07-10T16:07:23;101482.03;;;35.42;17.41
65151;BME280;51918;51.856;0.150;2022-07-10T16:12:25;101481.84;;;34.93;17.93
65151;BME280;51918;51.856;0.150;2022-07-10T16:17:26;101483.94;;;34.60;18.50
65151;BME280;51918;51.856;0.150;2022-07-10T16:22:26;101484.78;;;34.33;18.71
65151;BME280;51918;51.856;0.150;2022-07-10T16:27:28;101483.78;;;34.01;18.82
65151;BME280;51918;51.856;0.150;2022-07-10T16:32:29;101484.19;;;33.80;19.14
65151;BME280;51918;51.856;0.150;2022-07-10T16:37:30;101473.03;;;33.13;19.28
65151;BME280;51918;51.856;0.150;2022-07-10T16:42:32;101465.72;;;32.66;20.31
65151;BME280;51918;51.856;0.150;2022-07-10T16:47:32;101465.75;;;32.42;20.46
65151;BME280;51918;51.856;0.150;2022-07-10T16:52:33;101456.72;;;32.19;20.83
65151;BME280;51918;51.856;0.150;2022-07-10T16:57:35;101455.06;;;31.75;21.01
65151;BME280;51918;51.856;0.150;2022-07-10T17:02:36;101457.56;;;31.67;21.93
65151;BME280;51918;51.856;0.150;2022-07-10T17:07:37;101452.22;;;31.37;20.98
65151;BME280;51918;51.856;0.150;2022-07-10T17:12:40;101459.44;;;30.92;21.25
65151;BME280;51918;51.856;0.150;2022-07-10T17:17:41;101451.00;;;30.80;22.03
65151;BME280;51918;51.856;0.150;2022-07-10T17:22:41;101442.81;;;30.71;22.83
65151;BME280;51918;51.856;0.150;2022-07-10T17:27:44;101446.34;;;30.61;23.24
65151;BME280;51918;51.856;0.150;2022-07-10T17:32:44;101431.00;;;30.53;21.97
65151;BME280;51918;51.856;0.150;2022-07-10T17:37:45;101429.66;;;30.45;21.81
65151;BME280;51918;51.856;0.150;2022-07-10T17:42:47;101441.66;;;30.33;22.29
65151;BME280;51918;51.856;0.150;2022-07-10T17:47:48;101436.94;;;30.19;22.29
65151;BME280;51918;51.856;0.150;2022-07-10T17:52:48;101435.38;;;30.13;21.55
65151;BME280;51918;51.856;0.150;2022-07-10T17:57:50;101431.16;;;30.07;22.27
65151;BME280;51918;51.856;0.150;2022-07-10T18:02:51;101426.66;;;30.02;22.84
65151;BME280;51918;51.856;0.150;2022-07-10T18:07:51;101426.94;;;29.91;23.17
65151;BME280;51918;51.856;0.150;2022-07-10T18:12:53;101425.09;;;29.81;23.17
65151;BME280;51918;51.856;0.150;2022-07-10T18:17:54;101423.81;;;29.73;24.13
65151;BME280;51918;51.856;0.150;2022-07-10T18:22:55;101424.88;;;29.67;23.82
65151;BME280;51918;51.856;0.150;2022-07-10T18:27:57;101424.38;;;29.55;23.62
65151;BME280;51918;51.856;0.150;2022-07-10T18:32:58;101415.91;;;29.48;23.98
65151;BME280;51918;51.856;0.150;2022-07-10T18:37:58;101419.59;;;29.36;24.20
65151;BME280;51918;51.856;0.150;2022-07-10T18:43:00;101425.41;;;29.23;23.71
65151;BME280;51918;51.856;0.150;2022-07-10T18:48:01;101416.94;;;29.11;24.93
65151;BME280;51918;51.856;0.150;2022-07-10T18:53:02;101430.44;;;28.99;25.64
65151;BME280;51918;51.856;0.150;2022-07-10T18:58:04;101426.41;;;28.81;24.78
65151;BME280;51918;51.856;0.150;2022-07-10T19:03:05;101428.50;;;28.64;24.67
65151;BME280;51918;51.856;0.150;2022-07-10T19:08:06;101414.16;;;28.44;25.35
65151;BME280;51918;51.856;0.150;2022-07-10T19:13:08;101417.75;;;28.23;25.35
65151;BME280;51918;51.856;0.150;2022-07-10T19:18:08;101411.31;;;28.03;25.23
65151;BME280;51918;51.856;0.150;2022-07-10T19:23:09;101405.13;;;27.82;25.55
65151;BME280;51918;51.856;0.150;2022-07-10T19:28:11;101418.16;;;27.61;25.94
65151;BME280;51918;51.856;0.150;2022-07-10T19:33:12;101411.97;;;27.40;26.29
65151;BME280;51918;51.856;0.150;2022-07-10T19:38:12;101418.66;;;27.21;26.41
65151;BME280;51918;51.856;0.150;2022-07-10T19:43:14;101409.75;;;27.00;27.19
65151;BME280;51918;51.856;0.150;2022-07-10T19:48:15;101410.31;;;26.80;27.64
65151;BME280;51918;51.856;0.150;2022-07-10T19:53:16;101416.19;;;26.60;27.87
65151;BME280;51918;51.856;0.150;2022-07-10T19:58:18;101416.19;;;26.38;28.75
65151;BME280;51918;51.856;0.150;2022-07-10T20:03:19;101427.53;;;25.83;32.16
65151;BME280;51918;51.856;0.150;2022-07-10T20:08:19;101437.06;;;25.67;33.82
65151;BME280;51918;51.856;0.150;2022-07-10T20:13:22;101436.44;;;25.43;35.11
65151;BME280;51918;51.856;0.150;2022-07-10T20:18:23;101443.84;;;25.29;35.59
65151;BME280;51918;51.856;0.150;2022-07-10T20:23:25;101443.06;;;25.16;36.30
65151;BME280;51918;51.856;0.150;2022-07-10T20:28:27;101452.91;;;24.92;36.85
65151;BME280;51918;51.856;0.150;2022-07-10T20:33:28;101459.47;;;24.78;37.16
65151;BME280;51918;51.856;0.150;2022-07-10T20:38:29;101454.25;;;24.54;38.23
65151;BME280;51918;51.856;0.150;2022-07-10T20:43:31;101457.38;;;24.28;38.60
65151;BME280;51918;51.856;0.150;2022-07-10T20:48:32;101452.44;;;23.96;39.71
65151;BME280;51918;51.856;0.150;2022-07-10T20:53:32;101459.19;;;23.92;40.07
65151;BME280;51918;51.856;0.150;2022-07-10T20:58:34;101466.31;;;23.61;41.11
65151;BME280;51918;51.856;0.150;2022-07-10T21:03:35;101467.69;;;23.52;41.35
65151;BME280;51918;51.856;0.150;2022-07-10T21:08:36;101472.28;;;23.26;42.02
65151;BME280;51918;51.856;0.150;2022-07-10T21:13:38;101475.50;;;23.28;41.96
65151;BME280;51918;51.856;0.150;2022-07-10T21:18:38;101482.88;;;23.01;43.23
65151;BME280;51918;51.856;0.150;2022-07-10T21:23:39;101481.56;;;22.92;43.43
65151;BME280;51918;51.856;0.150;2022-07-10T21:28:41;101489.59;;;22.79;43.72
65151;BME280;51918;51.856;0.150;2022-07-10T21:33:41;101485.09;;;22.67;43.94
65151;BME280;51918;51.856;0.150;2022-07-10T21:38:42;101480.88;;;22.41;45.02
65151;BME280;51918;51.856;0.150;2022-07-10T21:43:44;101483.56;;;22.16;45.85
65151;BME280;51918;51.856;0.150;2022-07-10T21:48:44;101487.56;;;22.19;45.39
65151;BME280;51918;51.856;0.150;2022-07-10T21:53:45;101480.00;;;22.04;46.12
65151;BME280;51918;51.856;0.150;2022-07-10T21:58:47;101484.19;;;21.86;45.71
65151;BME280;51918;51.856;0.150;2022-07-10T22:03:47;101492.28;;;21.78;46.30
65151;BME280;51918;51.856;0.150;2022-07-10T22:08:48;101497.16;;;21.68;46.81
65151;BME280;51918;51.856;0.150;2022-07-10T22:13:50;101497.81;;;21.63;45.49
65151;BME280;51918;51.856;0.150;2022-07-10T22:18:51;101497.50;;;21.46;46.77
65151;BME280;51918;51.856;0.150;2022-07-10T22:23:51;101492.97;;;21.28;46.47
65151;BME280;51918;51.856;0.150;2022-07-10T22:28:53;101496.81;;;21.26;46.42
65151;BME280;51918;51.856;0.150;2022-07-10T22:33:56;101494.03;;;21.14;46.71
65151;BME280;51918;51.856;0.150;2022-07-10T22:38:57;101498.69;;;20.99;46.94
65151;BME280;51918;51.856;0.150;2022-07-10T22:43:59;101501.59;;;20.70;48.15
65151;BME280;51918;51.856;0.150;2022-07-10T22:48:59;101505.66;;;20.53;47.63
65151;BME280;51918;51.856;0.150;2022-07-10T22:54:00;101502.06;;;20.34;48.90
65151;BME280;51918;51.856;0.150;2022-07-10T22:59:02;101507.28;;;20.41;49.07
65151;BME280;51918;51.856;0.150;2022-07-10T23:04:02;101497.41;;;20.43;48.23
65151;BME280;51918;51.856;0.150;2022-07-10T23:09:03;101492.00;;;20.18;48.45
65151;BME280;51918;51.856;0.150;2022-07-10T23:14:05;101492.41;;;20.28;48.16
65151;BME280;51918;51.856;0.150;2022-07-10T23:19:06;101490.97;;;20.12;48.15
65151;BME280;51918;51.856;0.150;2022-07-10T23:24:06;101485.34;;;20.08;48.11
65151;BME280;51918;51.856;0.150;2022-07-10T23:29:08;101492.38;;;20.08;48.10
65151;BME280;51918;51.856;0.150;2022-07-10T23:34:09;101478.31;;;20.02;48.01
65151;BME280;51918;51.856;0.150;2022-07-10T23:39:09;101474.72;;;19.97;47.92
65151;BME280;51918;51.856;0.150;2022-07-10T23:44:11;101474.50;;;19.85;47.80
65151;BME280;51918;51.856;0.150;2022-07-10T23:49:12;101470.88;;;19.79;47.67
65151;BME280;51918;51.856;0.150;2022-07-10T23:54:12;101481.53;;;19.78;48.21
65151;BME280;51918;51.856;0.150;2022-07-10T23:59:14;101471.44;;;19.68;48.08
